createdAt,value
2023-03-28T00:01:25.293Z,3.53
2023-03-28T00:04:29.923Z,3.47
2023-03-28T00:07:31.737Z,3.90
2023-03-28T00:10:33.821Z,4.87
2023-03-28T00:13:35.929Z,3.20
2023-03-28T00:16:39.461Z,3.70
2023-03-28T00:19:41.466Z,3.47
2023-03-28T00:22:43.099Z,3.20
2023-03-28T00:25:44.774Z,3.77
2023-03-28T00:28:46.585Z,3.10
2023-03-28T00:31:49.615Z,4.00
2023-03-28T00:34:51.645Z,3.17
2023-03-28T00:37:58.507Z,7.30
2023-03-28T00:41:00.203Z,3.10
2023-03-28T00:44:02.966Z,2.83
2023-03-28T00:47:05.160Z,3.00
2023-03-28T00:50:07.199Z,2.40
2023-03-28T00:53:13.776Z,3.20
2023-03-28T00:56:17.668Z,2.90
2023-03-28T00:59:20.852Z,3.80
2023-03-28T01:02:23.306Z,2.07
2023-03-28T01:05:30.218Z,4.40
2023-03-28T01:08:34.024Z,2.10
2023-03-28T01:11:37.021Z,1.30
2023-03-28T01:14:40.055Z,1.20
2023-03-28T01:17:46.370Z,1.57
2023-03-28T01:21:06.671Z,1.67
2023-03-28T01:24:11.905Z,1.10
2023-03-28T01:27:24.873Z,1.47
2023-03-28T01:30:28.905Z,1.27
2023-03-28T01:33:49.116Z,2.30
2023-03-28T01:37:03.272Z,0.70
2023-03-28T01:40:36.572Z,1.10
2023-03-28T01:43:52.659Z,0.60
2023-03-28T01:47:21.027Z,1.67
2023-03-28T01:50:27.583Z,1.17
2023-03-28T01:53:32.859Z,4.13
2023-03-28T01:56:41.067Z,0.80
2023-03-28T01:59:56.186Z,0.90
2023-03-28T02:02:57.904Z,0.70
2023-03-28T02:06:09.454Z,1.20
2023-03-28T02:09:12.125Z,0.60
2023-03-28T02:12:48.499Z,1.03
2023-03-28T02:16:10.474Z,0.67
2023-03-28T02:19:44.197Z,0.83
2023-03-28T02:23:12.926Z,1.50
2023-03-28T02:26:41.562Z,1.30
2023-03-28T02:29:54.660Z,2.77
2023-03-28T02:33:31.127Z,0.83
2023-03-28T02:36:59.081Z,0.40
2023-03-28T02:40:00.788Z,0.77
2023-03-28T02:43:06.878Z,0.60
2023-03-28T02:46:22.378Z,1.10
2023-03-28T02:49:43.770Z,0.80
2023-03-28T02:52:58.735Z,0.77
2023-03-28T02:56:06.048Z,3.00
2023-03-28T02:59:41.227Z,2.60
2023-03-28T03:02:44.336Z,0.70
2023-03-28T03:05:46.079Z,0.67
2023-03-28T03:08:47.847Z,1.10
2023-03-28T03:11:49.500Z,0.97
2023-03-28T03:14:51.238Z,1.70
2023-03-28T03:18:13.135Z,0.80
2023-03-28T03:21:14.864Z,1.10
2023-03-28T03:24:17.670Z,1.63
2023-03-28T03:27:20.765Z,1.20
2023-03-28T03:30:23.040Z,1.20
2023-03-28T03:33:47.526Z,1.40
2023-03-28T03:36:53.143Z,1.63
2023-03-28T03:39:54.967Z,1.47
2023-03-28T03:43:03.853Z,1.00
2023-03-28T03:46:05.835Z,2.50
2023-03-28T03:49:09.214Z,2.03
2023-03-28T03:52:10.995Z,1.63
2023-03-28T03:55:12.718Z,4.20
2023-03-28T03:58:15.700Z,5.23
2023-03-28T04:01:17.723Z,1.53
2023-03-28T04:04:19.535Z,2.27
2023-03-28T04:07:50.836Z,1.90
2023-03-28T04:11:02.685Z,1.53
2023-03-28T04:14:11.256Z,2.23
2023-03-28T04:17:13.867Z,1.50
2023-03-28T04:20:16.063Z,6.40
2023-03-28T04:23:43.761Z,3.53
2023-03-28T04:27:05.687Z,2.67
2023-03-28T04:30:09.586Z,2.53
2023-03-28T04:33:38.031Z,8.30
2023-03-28T04:36:41.093Z,2.60
2023-03-28T04:39:44.754Z,3.23
2023-03-28T04:43:04.774Z,2.20
2023-03-28T04:46:22.512Z,2.93
2023-03-28T04:49:27.937Z,5.27
2023-03-28T04:52:29.837Z,4.83
2023-03-28T04:55:31.769Z,2.47
2023-03-28T04:58:38.080Z,1.97
2023-03-28T05:01:40.179Z,4.23
2023-03-28T05:05:14.319Z,2.47
2023-03-28T05:08:17.133Z,5.53
2023-03-28T05:11:19.162Z,3.17
2023-03-28T05:14:21.381Z,3.33
2023-03-28T05:17:27.170Z,2.93
2023-03-28T05:20:38.504Z,2.73
2023-03-28T05:23:40.381Z,3.83
2023-03-28T05:26:51.551Z,4.03
2023-03-28T05:29:57.473Z,3.63
2023-03-28T05:33:00.143Z,2.37
2023-03-28T05:36:02.881Z,4.27
2023-03-28T05:39:07.450Z,2.10
2023-03-28T05:42:09.351Z,3.13
2023-03-28T05:45:14.241Z,3.67
2023-03-28T05:48:21.912Z,5.83
2023-03-28T05:51:23.682Z,2.53
2023-03-28T05:54:25.388Z,2.23
2023-03-28T05:57:27.378Z,7.03
2023-03-28T06:00:29.542Z,5.93
2023-03-28T06:03:32.651Z,4.67
2023-03-28T06:06:41.377Z,2.13
2023-03-28T06:09:43.267Z,1.93
2023-03-28T06:12:45.942Z,4.53
2023-03-28T06:15:47.699Z,2.83
2023-03-28T06:18:50.614Z,2.17
2023-03-28T06:21:53.895Z,4.60
2023-03-28T06:24:56.152Z,4.87
2023-03-28T06:28:02.755Z,3.67
2023-03-28T06:31:05.566Z,4.57
2023-03-28T06:34:07.472Z,4.43
2023-03-28T06:37:16.568Z,6.30
2023-03-28T06:40:47.492Z,2.00
2023-03-28T06:43:50.237Z,1.83
2023-03-28T06:47:10.395Z,2.43
2023-03-28T06:50:12.384Z,4.37
2023-03-28T06:53:36.135Z,3.23
2023-03-28T06:56:37.870Z,2.07
2023-03-28T06:59:39.616Z,14.70
2023-03-28T07:02:43.179Z,2.83
2023-03-28T07:05:45.274Z,4.67
2023-03-28T07:08:47.064Z,7.90
2023-03-28T07:11:50.716Z,2.43
2023-03-28T07:14:53.311Z,2.73
2023-03-28T07:17:55.120Z,2.40
2023-03-28T07:21:03.922Z,8.13
2023-03-28T07:24:07.181Z,2.90
2023-03-28T07:27:27.567Z,9.07
2023-03-28T07:30:29.418Z,3.77
2023-03-28T07:33:36.830Z,9.57
2023-03-28T07:36:44.404Z,7.37
2023-03-28T07:39:53.931Z,9.40
2023-03-28T07:42:57.546Z,7.47
2023-03-28T07:46:00.065Z,4.53
2023-03-28T07:49:01.768Z,4.13
2023-03-28T07:52:04.130Z,9.63
2023-03-28T07:55:06.635Z,4.50
2023-03-28T07:58:12.647Z,9.93
2023-03-28T08:01:18.920Z,5.10
2023-03-28T08:04:40.883Z,5.47
2023-03-28T08:07:46.082Z,7.60
2023-03-28T08:10:51.694Z,4.43
2023-03-28T08:13:53.646Z,5.53
2023-03-28T08:16:58.006Z,4.07
2023-03-28T08:19:59.687Z,3.30
2023-03-28T08:23:03.798Z,2.70
2023-03-28T08:26:08.626Z,2.80
2023-03-28T08:29:13.539Z,2.27
2023-03-28T08:32:15.236Z,4.10
2023-03-28T08:35:17.076Z,3.23
2023-03-28T08:38:19.987Z,4.47
2023-03-28T08:41:41.011Z,7.67
2023-03-28T08:44:52.840Z,3.47
2023-03-28T08:47:57.608Z,4.10
2023-03-28T08:50:59.724Z,7.30
2023-03-28T08:54:10.487Z,4.00
2023-03-28T08:57:16.847Z,10.77
2023-03-28T09:00:24.648Z,6.43
2023-03-28T09:03:26.506Z,2.97
2023-03-28T09:06:38.249Z,3.10
2023-03-28T09:09:49.273Z,3.93
2023-03-28T09:13:15.965Z,6.93
2023-03-28T09:16:20.147Z,6.47
2023-03-28T09:19:40.663Z,5.77
2023-03-28T09:23:21.135Z,5.03
2023-03-28T09:26:52.252Z,6.43
2023-03-28T09:29:58.297Z,3.37
2023-03-28T09:33:05.632Z,22.50
2023-03-28T09:36:19.180Z,2.50
2023-03-28T09:39:22.472Z,3.77
2023-03-28T09:42:31.497Z,4.03
2023-03-28T09:46:07.274Z,3.63
2023-03-28T09:49:37.869Z,2.43
2023-03-28T09:52:45.302Z,10.20
2023-03-28T09:55:57.994Z,7.83
2023-03-28T09:59:02.520Z,2.37
2023-03-28T10:02:33.384Z,3.03
2023-03-28T10:05:40.937Z,2.60
2023-03-28T10:09:28.644Z,4.20
2023-03-28T10:12:36.725Z,3.93
2023-03-28T10:15:44.925Z,3.43
2023-03-28T10:19:05.235Z,3.37
2023-03-28T10:22:40.105Z,3.10
2023-03-28T10:25:44.592Z,3.83
2023-03-28T10:28:46.280Z,4.70
2023-03-28T10:31:49.008Z,5.07
2023-03-28T10:35:18.706Z,3.30
2023-03-28T10:38:27.437Z,5.33
2023-03-28T10:41:56.875Z,4.00
2023-03-28T10:45:53.580Z,4.13
2023-03-28T10:49:14.317Z,5.60
2023-03-28T10:52:26.446Z,5.07
2023-03-28T10:55:34.120Z,4.40
2023-03-28T10:59:17.144Z,5.40
2023-03-28T11:02:19.790Z,6.20
2023-03-28T11:06:08.536Z,5.17
2023-03-28T11:09:34.665Z,2.23
2023-03-28T11:13:04.831Z,8.30
2023-03-28T11:16:17.108Z,7.60
2023-03-28T11:19:42.356Z,4.20
2023-03-28T11:23:06.075Z,8.77
2023-03-28T11:26:18.929Z,7.90
2023-03-28T11:29:46.034Z,8.27
2023-03-28T11:32:53.163Z,6.37
2023-03-28T11:35:58.280Z,11.73
2023-03-28T11:39:09.051Z,7.03
2023-03-28T11:42:13.936Z,7.20
2023-03-28T11:45:34.161Z,6.60
2023-03-28T11:48:55.811Z,3.40
2023-03-28T11:52:03.935Z,4.60
2023-03-28T11:55:26.459Z,4.83
2023-03-28T11:58:29.254Z,8.67
2023-03-28T12:01:34.162Z,13.30
2023-03-28T12:04:43.146Z,7.33
2023-03-28T12:07:44.827Z,3.73
2023-03-28T12:11:06.385Z,7.73
2023-03-28T12:14:32.001Z,8.13
2023-03-28T12:17:44.198Z,6.17
2023-03-28T12:20:52.995Z,6.83
2023-03-28T12:24:13.825Z,7.20
2023-03-28T12:27:22.143Z,4.17
2023-03-28T12:30:26.024Z,4.10
2023-03-28T12:33:52.707Z,8.47
2023-03-28T12:37:41.400Z,2.97
2023-03-28T12:40:47.384Z,10.20
2023-03-28T12:43:55.672Z,5.17
2023-03-28T12:47:04.778Z,5.50
2023-03-28T12:50:14.169Z,4.40
2023-03-28T12:53:17.283Z,4.80
2023-03-28T12:56:21.696Z,3.33
2023-03-28T12:59:36.115Z,4.43
2023-03-28T13:02:55.923Z,5.30
2023-03-28T13:06:03.719Z,6.37
2023-03-28T13:09:05.421Z,3.43
2023-03-28T13:12:17.434Z,7.07
2023-03-28T13:15:19.054Z,8.97
2023-03-28T13:18:21.372Z,7.77
2023-03-28T13:21:41.886Z,6.60
2023-03-28T13:24:43.569Z,9.27
2023-03-28T13:27:45.345Z,9.67
2023-03-28T13:30:47.107Z,14.50
2023-03-28T13:33:53.293Z,5.50
2023-03-28T13:36:55.248Z,10.77
2023-03-28T13:40:00.339Z,10.90
2023-03-28T13:43:02.034Z,8.03
2023-03-28T13:46:27.069Z,12.17
2023-03-28T13:49:46.687Z,7.13
2023-03-28T13:52:48.422Z,11.33
2023-03-28T13:56:06.572Z,21.60
2023-03-28T13:59:12.283Z,18.00
2023-03-28T14:02:35.537Z,22.47
2023-03-28T14:05:42.177Z,18.90
2023-03-28T14:08:47.722Z,14.37
2023-03-28T14:11:50.126Z,23.80
2023-03-28T14:14:53.785Z,25.03
2023-03-28T14:17:56.993Z,14.07
2023-03-28T14:21:00.535Z,13.13
2023-03-28T14:24:04.854Z,10.27
2023-03-28T14:27:13.964Z,18.87
2023-03-28T14:30:16.210Z,15.00
2023-03-28T14:33:20.499Z,12.87
2023-03-28T14:36:22.283Z,15.53
2023-03-28T14:39:24.309Z,20.17
2023-03-28T14:42:28.552Z,22.10
2023-03-28T14:45:31.398Z,17.17
2023-03-28T14:48:33.634Z,12.70
2023-03-28T14:51:42.652Z,15.57
2023-03-28T14:54:48.051Z,18.07
2023-03-28T14:57:51.828Z,19.27
2023-03-28T15:01:03.455Z,17.27
2023-03-28T15:04:06.626Z,17.47
2023-03-28T15:07:19.500Z,20.13
2023-03-28T15:10:25.616Z,15.87
2023-03-28T15:13:32.565Z,15.40
2023-03-28T15:16:37.638Z,19.97
2023-03-28T15:19:41.030Z,14.93
2023-03-28T15:22:42.794Z,16.47
2023-03-28T15:25:44.975Z,11.63
2023-03-28T15:28:47.586Z,15.43
2023-03-28T15:31:49.490Z,8.20
2023-03-28T15:34:59.693Z,7.13
2023-03-28T15:38:02.902Z,8.23
2023-03-28T15:41:29.065Z,8.60
2023-03-28T15:44:30.711Z,8.77
2023-03-28T15:47:35.594Z,18.37
2023-03-28T15:50:38.517Z,11.87
2023-03-28T15:53:41.161Z,9.50
2023-03-28T15:56:47.773Z,8.17
2023-03-28T15:59:53.914Z,10.97
2023-03-28T16:03:15.508Z,13.57
2023-03-28T16:06:30.792Z,12.57
2023-03-28T16:09:34.917Z,9.77
2023-03-28T16:12:36.844Z,14.13
2023-03-28T16:16:12.758Z,14.90
2023-03-28T16:19:28.406Z,9.53
2023-03-28T16:22:30.292Z,10.07
2023-03-28T16:25:32.220Z,9.87
2023-03-28T16:28:34.043Z,9.33
2023-03-28T16:31:35.731Z,12.57
2023-03-28T16:34:37.394Z,11.43
2023-03-28T16:37:39.048Z,10.97
2023-03-28T16:40:41.859Z,8.53
2023-03-28T16:43:43.510Z,14.10
2023-03-28T16:46:45.208Z,8.67
2023-03-28T16:49:46.837Z,9.17
2023-03-28T16:52:48.600Z,7.00
2023-03-28T16:55:51.242Z,17.60
2023-03-28T16:58:53.214Z,14.70
2023-03-28T17:01:54.857Z,24.77
2023-03-28T17:04:56.586Z,8.07
2023-03-28T17:07:59.651Z,7.90
2023-03-28T17:11:01.448Z,14.63
2023-03-28T17:14:03.779Z,19.67
2023-03-28T17:17:05.469Z,12.43
2023-03-28T17:20:07.513Z,19.90
2023-03-28T17:23:09.169Z,18.07
2023-03-28T17:26:12.180Z,14.07
2023-03-28T17:29:16.053Z,10.73
2023-03-28T17:32:17.724Z,5.87
2023-03-28T17:35:19.795Z,13.20
2023-03-28T17:38:21.685Z,8.37
2023-03-28T17:41:23.683Z,12.77
2023-03-28T17:44:25.574Z,9.53
2023-03-28T17:47:27.251Z,9.70
2023-03-28T17:50:29.148Z,9.60
2023-03-28T17:53:31.149Z,7.23
2023-03-28T17:56:32.816Z,6.63
2023-03-28T17:59:34.456Z,9.53
2023-03-28T18:02:38.439Z,10.23
2023-03-28T18:05:50.403Z,9.53
2023-03-28T18:08:52.058Z,7.37
2023-03-28T18:11:53.738Z,7.63
2023-03-28T18:14:59.523Z,6.50
2023-03-28T18:18:02.953Z,8.03
2023-03-28T18:21:05.239Z,8.93
2023-03-28T18:24:08.088Z,10.63
2023-03-28T18:27:09.760Z,16.23
2023-03-28T18:30:11.582Z,11.70
2023-03-28T18:33:13.189Z,16.53
2023-03-28T18:36:14.922Z,13.00
2023-03-28T18:39:17.133Z,14.67
2023-03-28T18:42:18.798Z,11.47
2023-03-28T18:45:20.400Z,14.37
2023-03-28T18:48:22.834Z,13.40
2023-03-28T18:51:25.217Z,8.30
2023-03-28T18:54:26.867Z,7.37
2023-03-28T18:57:28.678Z,9.27
2023-03-28T19:00:30.443Z,5.30
2023-03-28T19:03:38.797Z,7.97
2023-03-28T19:06:40.630Z,6.23
2023-03-28T19:09:43.849Z,6.60
2023-03-28T19:12:45.799Z,8.00
2023-03-28T19:15:47.529Z,4.93
2023-03-28T19:18:49.230Z,7.23
2023-03-28T19:21:51.858Z,4.47
2023-03-28T19:24:53.478Z,6.60
2023-03-28T19:27:55.155Z,5.03
2023-03-28T19:31:01.121Z,5.03
2023-03-28T19:34:03.132Z,3.77
2023-03-28T19:37:05.198Z,4.20
2023-03-28T19:40:10.443Z,5.60
2023-03-28T19:43:12.210Z,4.13
2023-03-28T19:46:17.128Z,5.23
2023-03-28T19:49:19.267Z,5.27
2023-03-28T19:52:21.023Z,4.83
2023-03-28T19:55:22.714Z,3.17
2023-03-28T19:58:24.782Z,6.53
2023-03-28T20:01:26.548Z,4.53
2023-03-28T20:04:28.421Z,8.33
2023-03-28T20:07:30.273Z,4.80
2023-03-28T20:10:32.120Z,5.27
2023-03-28T20:13:33.941Z,4.40
2023-03-28T20:16:35.643Z,3.80
2023-03-28T20:19:37.650Z,4.17
2023-03-28T20:22:39.351Z,3.57
2023-03-28T20:25:41.451Z,4.60
2023-03-28T20:28:43.104Z,4.87
2023-03-28T20:31:44.756Z,3.50
2023-03-28T20:34:47.380Z,4.43
2023-03-28T20:37:49.079Z,3.63
2023-03-28T20:40:50.825Z,3.53
2023-03-28T20:43:53.171Z,2.53
2023-03-28T20:46:54.897Z,3.87
2023-03-28T20:49:59.166Z,5.40
2023-03-28T20:53:01.897Z,2.90
2023-03-28T20:56:04.725Z,4.27
2023-03-28T20:59:06.479Z,3.33
2023-03-28T21:02:10.777Z,10.10
2023-03-28T21:05:12.644Z,4.17
2023-03-28T21:08:15.646Z,10.40
2023-03-28T21:11:18.533Z,16.27
2023-03-28T21:14:20.451Z,13.50
2023-03-28T21:17:26.267Z,11.20
2023-03-28T21:20:28.270Z,12.63
2023-03-28T21:23:29.871Z,5.37
2023-03-28T21:26:31.774Z,7.63
2023-03-28T21:29:33.648Z,8.67
2023-03-28T21:32:35.451Z,7.57
2023-03-28T21:35:38.626Z,5.17
2023-03-28T21:38:40.436Z,7.73
2023-03-28T21:41:42.035Z,8.67
2023-03-28T21:44:43.619Z,7.90
2023-03-28T21:47:45.305Z,9.57
2023-03-28T21:54:00.665Z,4.40
2023-03-28T21:57:02.356Z,6.90
2023-03-28T22:00:14.929Z,12.00
2023-03-28T22:03:16.962Z,4.67
2023-03-28T22:06:19.009Z,5.33
2023-03-28T22:09:21.675Z,5.00
2023-03-28T22:12:23.604Z,3.47
2023-03-28T22:15:25.544Z,4.17
2023-03-28T22:18:27.253Z,3.83
2023-03-28T22:21:31.521Z,5.40
2023-03-28T22:24:33.266Z,7.73
2023-03-28T22:27:35.251Z,4.97
2023-03-28T22:30:40.494Z,6.00
2023-03-28T22:33:42.180Z,3.10
2023-03-28T22:36:44.079Z,2.63
2023-03-28T22:39:46.642Z,7.10
2023-03-28T22:42:48.718Z,3.57
2023-03-28T22:45:50.526Z,3.17
2023-03-28T22:48:54.471Z,3.37
2023-03-28T22:52:01.847Z,5.20
2023-03-28T22:55:04.472Z,8.17
2023-03-28T22:58:06.175Z,3.50
2023-03-28T23:01:07.844Z,6.37
2023-03-28T23:04:09.520Z,5.33
2023-03-28T23:07:12.568Z,2.47
2023-03-28T23:10:18.148Z,5.20
2023-03-28T23:13:19.776Z,4.03
2023-03-28T23:16:21.453Z,6.07
2023-03-28T23:19:24.180Z,5.70
2023-03-28T23:22:25.965Z,5.67
2023-03-28T23:25:28.765Z,5.17
2023-03-28T23:28:30.530Z,3.10
2023-03-28T23:31:32.164Z,3.07
2023-03-28T23:34:34.801Z,7.73
2023-03-28T23:37:38.402Z,7.40
2023-03-28T23:40:41.434Z,7.00
2023-03-28T23:43:43.050Z,4.97
2023-03-28T23:46:44.657Z,4.50
2023-03-28T23:49:46.752Z,4.40
2023-03-28T23:52:48.388Z,6.57
2023-03-28T23:55:50.150Z,7.33
2023-03-28T23:58:52.171Z,2.97
